Time;durP1;ratioP1;P1;durP2;ratioP2;P2;SDS_P1;SDS_P2;PMS_P1;PMS_P2;Temp;Humidity;BMP_temperature;BMP_pressure;BME280_temperature;BME280_humidity;BME280_pressure;Samples;Min_cycle;Max_cycle;Signal;HPM_P1;HPM_P2
2022/08/21 00:01:09;;;;;;;11.02;10.00;;;18.50;99.90;;;;;;5055370;28;20021;-70
2022/08/21 00:03:35;;;;;;;10.68;9.55;;;18.50;99.90;;;;;;5054838;28;20115;-70
2022/08/21 00:06:02;;;;;;;10.85;9.60;;;18.40;99.90;;;;;;5054459;28;20029;-70
2022/08/21 00:08:27;;;;;;;13.02;9.05;;;18.40;99.90;;;;;;5054769;28;20021;-70
2022/08/21 00:10:53;;;;;;;10.43;7.00;;;18.40;99.90;;;;;;5042399;28;20043;-70
2022/08/21 00:13:19;;;;;;;9.88;7.22;;;18.40;99.90;;;;;;5054398;28;20415;-69
2022/08/21 00:15:46;;;;;;;11.02;7.75;;;18.40;99.90;;;;;;5053039;28;20025;-69
2022/08/21 00:18:13;;;;;;;10.15;8.48;;;18.20;99.90;;;;;;5052715;28;20469;-70
2022/08/21 00:20:41;;;;;;;8.20;7.38;;;18.30;99.90;;;;;;5053807;28;20029;-69
2022/08/21 00:23:07;;;;;;;8.38;7.50;;;18.30;99.90;;;;;;5054873;28;20040;-72
2022/08/21 00:25:33;;;;;;;8.48;7.43;;;18.30;99.90;;;;;;5054338;28;20021;-71
2022/08/21 00:27:59;;;;;;;12.65;8.27;;;18.30;99.90;;;;;;5054488;28;20474;-72
2022/08/21 00:30:26;;;;;;;10.07;8.55;;;18.20;99.90;;;;;;5054649;28;20036;-73
2022/08/21 00:32:54;;;;;;;12.07;8.35;;;18.20;99.90;;;;;;5053665;28;20032;-70
2022/08/21 00:35:29;;;;;;;10.95;9.55;;;18.20;99.90;;;;;;5052639;28;20064;-73
2022/08/21 00:37:55;;;;;;;9.73;8.77;;;18.10;99.90;;;;;;5035512;28;20017;-69
2022/08/21 00:40:30;;;;;;;10.48;9.55;;;17.90;99.90;;;;;;5054103;28;20033;-72
2022/08/21 00:42:56;;;;;;;11.05;9.52;;;18.00;99.90;;;;;;5054455;28;20043;-75
2022/08/21 00:45:23;;;;;;;11.30;10.30;;;18.00;99.90;;;;;;5054092;28;20450;-72
2022/08/21 00:47:50;;;;;;;13.77;9.90;;;18.00;99.90;;;;;;5053053;28;20048;-72
2022/08/21 00:50:16;;;;;;;10.10;8.90;;;17.90;99.90;;;;;;5053849;28;20041;-69
2022/08/21 00:52:43;;;;;;;12.27;9.57;;;17.90;99.90;;;;;;5052431;28;20017;-71
2022/08/21 00:55:11;;;;;;;11.73;10.60;;;17.90;99.90;;;;;;5051255;28;20056;-72
2022/08/21 00:57:45;;;;;;;12.85;10.30;;;17.80;99.90;;;;;;5053767;28;20098;-75
2022/08/21 01:00:18;;;;;;;13.13;10.70;;;17.80;99.90;;;;;;5053803;28;20116;-72
2022/08/21 01:02:46;;;;;;;11.93;10.82;;;17.90;99.90;;;;;;5054137;28;20393;-72
2022/08/21 01:05:12;;;;;;;10.10;9.10;;;17.80;99.90;;;;;;5053104;28;20060;-71
2022/08/21 01:07:38;;;;;;;14.50;9.13;;;17.80;99.90;;;;;;5053912;28;20025;-70
2022/08/21 01:10:05;;;;;;;11.68;8.82;;;17.70;99.90;;;;;;5053338;28;20029;-74
2022/08/21 01:12:32;;;;;;;10.45;9.30;;;17.80;99.90;;;;;;5053407;28;20458;-73
2022/08/21 01:14:58;;;;;;;9.05;8.15;;;17.80;99.90;;;;;;5052949;28;20017;-70
2022/08/21 01:17:26;;;;;;;13.40;8.77;;;17.80;99.90;;;;;;5052861;28;20531;-74
2022/08/21 01:19:52;;;;;;;12.55;8.85;;;17.80;99.90;;;;;;5052275;28;20502;-72
2022/08/21 01:22:19;;;;;;;10.18;8.80;;;17.80;99.90;;;;;;5053748;28;20029;-70
2022/08/21 01:24:45;;;;;;;11.20;9.60;;;17.80;99.90;;;;;;5033591;28;20047;-70
2022/08/21 01:27:10;;;;;;;15.68;11.75;;;17.80;99.90;;;;;;5053404;28;20029;-70
2022/08/21 01:29:46;;;;;;;12.70;11.55;;;17.70;99.90;;;;;;5051860;28;20040;-69
2022/08/21 01:32:17;;;;;;;12.23;11.00;;;17.70;99.90;;;;;;5054871;28;20021;-69
2022/08/21 01:34:45;;;;;;;12.43;11.07;;;17.60;99.90;;;;;;5064606;28;20031;-69
2022/08/21 01:37:12;;;;;;;13.82;12.40;;;17.60;99.90;;;;;;5059289;28;20074;-70
2022/08/21 01:39:38;;;;;;;16.35;11.65;;;17.60;99.90;;;;;;5054559;28;20029;-73
2022/08/21 01:42:05;;;;;;;15.95;12.25;;;17.50;99.90;;;;;;5035155;28;20029;-72
2022/08/21 01:44:32;;;;;;;14.82;10.95;;;17.60;99.90;;;;;;5052891;28;20037;-72
2022/08/21 01:47:00;;;;;;;14.82;11.77;;;17.60;99.90;;;;;;5051764;28;20021;-70
2022/08/21 01:49:26;;;;;;;16.50;13.27;;;17.50;99.90;;;;;;5052804;28;20496;-72
2022/08/21 01:51:51;;;;;;;14.80;11.55;;;17.50;99.90;;;;;;5052375;28;20029;-71
2022/08/21 01:54:18;;;;;;;11.40;10.30;;;17.50;99.90;;;;;;5052239;28;20029;-70
2022/08/21 01:56:46;;;;;;;11.57;9.63;;;17.60;99.90;;;;;;5051303;28;20036;-74
2022/08/21 01:59:12;;;;;;;10.98;9.98;;;17.60;99.90;;;;;;5052991;28;20025;-69
2022/08/21 02:01:39;;;;;;;11.73;9.63;;;17.50;99.90;;;;;;5052822;28;20100;-69
2022/08/21 02:04:06;;;;;;;10.80;9.73;;;17.50;99.90;;;;;;5053298;28;20067;-69
2022/08/21 02:06:32;;;;;;;11.55;10.35;;;17.50;99.90;;;;;;5037005;28;20105;-69
2022/08/21 02:08:58;;;;;;;13.88;10.68;;;17.40;99.90;;;;;;5032118;28;20057;-68
2022/08/21 02:11:24;;;;;;;16.08;11.65;;;17.40;99.90;;;;;;5039226;28;20038;-68
2022/08/21 02:13:50;;;;;;;12.23;11.02;;;17.40;99.90;;;;;;5052201;28;20074;-68
2022/08/21 02:16:15;;;;;;;14.82;11.18;;;17.40;99.90;;;;;;5051592;28;20488;-68
2022/08/21 02:18:41;;;;;;;15.25;11.02;;;17.30;99.90;;;;;;5051967;28;20067;-68
2022/08/21 02:21:07;;;;;;;18.17;12.05;;;17.30;99.90;;;;;;5052283;28;20028;-68
2022/08/21 02:23:33;;;;;;;17.20;13.95;;;17.30;99.90;;;;;;5052610;28;20542;-70
2022/08/21 02:26:02;;;;;;;19.27;12.93;;;17.20;99.90;;;;;;5051946;28;20104;-70
2022/08/21 02:28:28;;;;;;;19.05;13.63;;;17.20;99.90;;;;;;5050922;28;20091;-68
2022/08/21 02:30:55;;;;;;;15.63;12.40;;;17.20;99.90;;;;;;5052191;28;20029;-68
2022/08/21 02:33:21;;;;;;;13.43;11.77;;;17.20;99.90;;;;;;5034116;28;20025;-68
2022/08/21 02:35:48;;;;;;;15.48;11.02;;;17.20;99.90;;;;;;5052573;28;20040;-68
2022/08/21 02:38:18;;;;;;;14.52;12.20;;;17.20;99.90;;;;;;5052547;28;20025;-68
2022/08/21 02:40:47;;;;;;;13.82;11.25;;;17.10;99.90;;;;;;5052582;28;20048;-68
2022/08/21 02:43:14;;;;;;;18.55;12.18;;;17.10;99.90;;;;;;5051059;28;20401;-69
2022/08/21 02:45:41;;;;;;;12.95;11.15;;;17.10;99.90;;;;;;5049823;28;20037;-68
2022/08/21 02:48:09;;;;;;;12.48;10.93;;;17.10;99.90;;;;;;5063727;28;20071;-68
2022/08/21 02:50:38;;;;;;;15.02;11.93;;;17.10;99.90;;;;;;5056342;28;20060;-69
2022/08/21 02:53:06;;;;;;;13.23;11.70;;;17.10;99.90;;;;;;5052520;28;20032;-68
2022/08/21 02:55:34;;;;;;;14.95;11.95;;;17.10;99.90;;;;;;5052161;28;20025;-68
2022/08/21 02:58:00;;;;;;;15.32;12.07;;;17.10;99.90;;;;;;5051376;28;20056;-67
2022/08/21 03:00:29;;;;;;;12.95;10.95;;;17.10;99.90;;;;;;5051276;28;20040;-68
2022/08/21 03:02:56;;;;;;;13.80;10.93;;;17.00;99.90;;;;;;5052209;28;20021;-68
2022/08/21 03:05:23;;;;;;;16.23;11.90;;;17.00;99.90;;;;;;5052363;28;20399;-68
2022/08/21 03:07:48;;;;;;;11.98;10.02;;;17.00;99.90;;;;;;5051926;28;20096;-67
2022/08/21 03:10:15;;;;;;;12.48;10.38;;;17.00;99.90;;;;;;5051779;28;20237;-68
2022/08/21 03:12:41;;;;;;;10.98;9.88;;;17.00;99.90;;;;;;5033759;28;20083;-68
2022/08/21 03:15:10;;;;;;;12.52;9.93;;;17.00;99.90;;;;;;5051690;28;20036;-68
2022/08/21 03:17:36;;;;;;;11.48;10.20;;;17.00;99.90;;;;;;5033880;28;20028;-67
2022/08/21 03:20:03;;;;;;;12.45;10.60;;;16.90;99.90;;;;;;5052219;28;20029;-68
2022/08/21 03:22:28;;;;;;;15.60;10.73;;;16.90;99.90;;;;;;5037891;28;20115;-68
2022/08/21 03:24:54;;;;;;;13.07;10.15;;;16.90;99.90;;;;;;5055322;28;20225;-68
2022/08/21 03:27:20;;;;;;;12.80;10.52;;;16.80;99.90;;;;;;5055216;28;20021;-67
2022/08/21 03:29:45;;;;;;;12.55;10.25;;;16.80;99.90;;;;;;5054886;28;20032;-68
2022/08/21 03:32:11;;;;;;;12.60;10.27;;;16.80;99.90;;;;;;5056099;28;20370;-68
2022/08/21 03:34:38;;;;;;;15.68;10.77;;;16.80;99.90;;;;;;5054664;28;20036;-67
2022/08/21 03:37:07;;;;;;;12.80;8.75;;;16.70;99.90;;;;;;5055489;28;20013;-67
2022/08/21 03:39:34;;;;;;;13.25;8.82;;;16.70;99.90;;;;;;5055176;28;20500;-68
2022/08/21 03:42:00;;;;;;;12.18;8.25;;;16.70;99.90;;;;;;5054905;28;20029;-67
2022/08/21 03:44:28;;;;;;;12.70;9.68;;;16.60;99.90;;;;;;5054788;28;20039;-68
2022/08/21 03:46:54;;;;;;;11.20;8.57;;;16.60;99.90;;;;;;5054506;28;20029;-67
2022/08/21 03:49:20;;;;;;;16.83;8.70;;;16.60;99.90;;;;;;5036921;28;20473;-68
2022/08/21 03:51:46;;;;;;;21.73;9.10;;;16.60;99.90;;;;;;5054376;28;20056;-67
2022/08/21 03:54:12;;;;;;;13.95;8.82;;;16.60;99.90;;;;;;5055362;28;20079;-67
2022/08/21 03:56:39;;;;;;;15.32;8.82;;;16.60;99.90;;;;;;5055074;28;20025;-67
2022/08/21 03:59:05;;;;;;;14.90;7.88;;;16.50;99.90;;;;;;5054362;28;20025;-67
2022/08/21 04:01:31;;;;;;;11.25;7.90;;;16.50;99.90;;;;;;5055337;28;20021;-67
2022/08/21 04:03:57;;;;;;;14.77;7.90;;;16.50;99.90;;;;;;5055205;28;20473;-68
2022/08/21 04:06:22;;;;;;;12.07;7.20;;;16.40;99.90;;;;;;5054877;28;20017;-67
2022/08/21 04:08:48;;;;;;;17.20;7.43;;;16.40;99.90;;;;;;5054732;28;20037;-67
2022/08/21 04:11:14;;;;;;;10.23;7.22;;;16.40;99.90;;;;;;5054989;28;20078;-67
2022/08/21 04:13:40;;;;;;;12.85;7.78;;;16.40;99.90;;;;;;5052700;28;20029;-68
2022/08/21 04:16:06;;;;;;;13.32;7.75;;;16.40;99.90;;;;;;5054474;28;20025;-68
2022/08/21 04:18:32;;;;;;;12.68;8.13;;;16.40;99.90;;;;;;5055166;28;20021;-68
2022/08/21 04:20:59;;;;;;;15.10;8.43;;;16.30;99.90;;;;;;5035844;28;20385;-67
2022/08/21 04:23:25;;;;;;;16.95;8.50;;;16.40;99.90;;;;;;5055041;28;20033;-67
2022/08/21 04:25:53;;;;;;;13.88;8.00;;;16.40;99.90;;;;;;5055002;28;20033;-67
2022/08/21 04:28:20;;;;;;;16.85;9.23;;;16.30;99.90;;;;;;5054790;28;20473;-67
2022/08/21 04:30:46;;;;;;;11.70;8.48;;;16.30;99.90;;;;;;5036515;28;20489;-68
2022/08/21 04:33:12;;;;;;;15.15;7.68;;;16.30;99.90;;;;;;5053922;28;20028;-68
2022/08/21 04:35:38;;;;;;;14.30;8.85;;;16.30;99.90;;;;;;5054462;28;20029;-68
2022/08/21 04:38:03;;;;;;;14.32;9.45;;;16.30;99.90;;;;;;5054722;28;20017;-67
2022/08/21 04:40:29;;;;;;;18.05;9.27;;;16.30;99.90;;;;;;5053253;28;20033;-68
2022/08/21 04:43:03;;;;;;;14.35;8.95;;;16.30;99.90;;;;;;5054428;28;20534;-68
2022/08/21 04:45:36;;;;;;;17.27;10.15;;;16.30;99.90;;;;;;5054547;28;20466;-69
2022/08/21 04:48:04;;;;;;;17.02;9.75;;;16.30;99.90;;;;;;5054516;28;20062;-69
2022/08/21 04:50:54;;;;;;;17.17;9.32;;;16.20;99.90;;;;;;5054167;28;20489;-68
2022/08/21 04:53:22;;;;;;;17.13;10.38;;;16.30;99.90;;;;;;5054548;28;20056;-68
2022/08/21 04:55:49;;;;;;;21.85;12.23;;;16.30;99.90;;;;;;5053404;28;20096;-71
2022/08/21 04:58:18;;;;;;;19.33;11.05;;;16.30;99.90;;;;;;5054118;28;20025;-71
2022/08/21 05:00:46;;;;;;;19.88;11.55;;;16.20;99.90;;;;;;5053687;28;20817;-68
2022/08/21 05:03:16;;;;;;;19.13;12.10;;;16.20;99.90;;;;;;5054091;28;20079;-67
2022/08/21 05:05:43;;;;;;;18.70;11.85;;;16.20;99.90;;;;;;5054245;28;20033;-69
2022/08/21 05:08:12;;;;;;;15.48;10.38;;;16.20;99.90;;;;;;5053904;28;20024;-70
2022/08/21 05:10:37;;;;;;;18.25;10.13;;;16.20;99.90;;;;;;5052752;28;20488;-68
2022/08/21 05:13:05;;;;;;;15.00;9.75;;;16.10;99.90;;;;;;5052482;28;20029;-68
2022/08/21 05:15:31;;;;;;;15.57;9.90;;;16.20;99.90;;;;;;5053824;28;20129;-68
2022/08/21 05:17:57;;;;;;;13.30;9.32;;;16.10;99.90;;;;;;5053329;28;20021;-68
2022/08/21 05:20:23;;;;;;;12.63;8.25;;;16.10;99.90;;;;;;5052499;28;20078;-68
2022/08/21 05:22:49;;;;;;;13.02;7.82;;;16.10;99.90;;;;;;5053387;28;20028;-69
2022/08/21 05:25:15;;;;;;;14.65;7.55;;;16.20;99.90;;;;;;5053108;28;20136;-68
2022/08/21 05:27:41;;;;;;;13.48;7.72;;;16.10;99.90;;;;;;5035079;28;20025;-69
2022/08/21 05:30:08;;;;;;;13.60;7.93;;;16.10;99.90;;;;;;5053425;28;20037;-70
2022/08/21 05:32:35;;;;;;;12.93;8.82;;;16.20;99.90;;;;;;5053246;28;20027;-67
2022/08/21 05:35:01;;;;;;;12.55;8.10;;;16.10;99.90;;;;;;5052689;28;20025;-68
2022/08/21 05:37:27;;;;;;;15.18;7.82;;;16.10;99.90;;;;;;5053056;28;20025;-68
2022/08/21 05:39:52;;;;;;;10.43;6.50;;;16.10;99.90;;;;;;5052107;28;20088;-68
2022/08/21 05:42:18;;;;;;;10.30;6.78;;;16.20;99.90;;;;;;5053229;28;20428;-71
2022/08/21 05:44:44;;;;;;;13.05;6.53;;;16.20;99.90;;;;;;5052098;28;20373;-68
2022/08/21 05:47:11;;;;;;;13.25;6.50;;;16.20;99.90;;;;;;5053509;28;20053;-69
2022/08/21 05:49:37;;;;;;;10.95;6.05;;;16.20;99.90;;;;;;5052661;28;20033;-68
2022/08/21 05:52:04;;;;;;;8.15;6.13;;;16.20;99.90;;;;;;5052584;28;20029;-70
2022/08/21 05:54:30;;;;;;;13.20;5.88;;;16.20;99.90;;;;;;5052754;28;20032;-70
2022/08/21 05:56:56;;;;;;;10.82;6.28;;;16.20;99.90;;;;;;5051973;28;20385;-68
2022/08/21 05:59:22;;;;;;;12.05;5.50;;;16.30;99.90;;;;;;5053328;28;20028;-69
2022/08/21 06:01:48;;;;;;;15.30;5.95;;;16.20;99.90;;;;;;5056248;28;20028;-69
2022/08/21 06:04:14;;;;;;;8.02;5.70;;;16.30;99.90;;;;;;5073134;28;20040;-68
2022/08/21 06:06:40;;;;;;;12.50;6.03;;;16.20;99.90;;;;;;5071126;28;20016;-73
2022/08/21 06:09:06;;;;;;;11.68;5.13;;;16.30;99.90;;;;;;5072288;28;20032;-68
2022/08/21 06:11:32;;;;;;;11.05;6.03;;;16.30;99.90;;;;;;5051627;28;20112;-70
2022/08/21 06:13:58;;;;;;;6.88;5.32;;;16.40;99.90;;;;;;5052801;28;20036;-68
2022/08/21 06:16:25;;;;;;;9.57;5.80;;;16.40;99.90;;;;;;5052427;28;20500;-68
2022/08/21 06:18:51;;;;;;;12.20;6.80;;;16.50;99.90;;;;;;5052682;28;20079;-67
2022/08/21 06:21:18;;;;;;;11.88;6.00;;;16.50;99.90;;;;;;5052029;28;20025;-68
2022/08/21 06:23:44;;;;;;;11.40;5.85;;;16.50;99.90;;;;;;5051131;28;20044;-68
2022/08/21 06:26:12;;;;;;;10.52;5.55;;;16.50;99.90;;;;;;5052090;28;20480;-68
2022/08/21 06:28:38;;;;;;;13.73;5.25;;;16.60;99.90;;;;;;5052743;28;20035;-68
2022/08/21 06:31:20;;;;;;;11.23;5.18;;;16.60;99.90;;;;;;5052058;28;20112;-68
2022/08/21 06:33:46;;;;;;;6.30;4.40;;;16.50;99.90;;;;;;5052426;28;20024;-68
2022/08/21 06:36:13;;;;;;;10.10;5.03;;;16.60;99.90;;;;;;5052261;28;20065;-68
2022/08/21 06:38:39;;;;;;;9.77;5.15;;;16.60;99.90;;;;;;5051396;28;20483;-68
2022/08/21 06:41:06;;;;;;;7.88;4.93;;;16.70;99.90;;;;;;5051841;28;20017;-67
2022/08/21 06:43:33;;;;;;;11.95;6.00;;;16.70;99.90;;;;;;5051455;28;20389;-68
2022/08/21 06:45:58;;;;;;;11.77;4.40;;;16.70;99.90;;;;;;5051005;28;20040;-68
2022/08/21 06:48:24;;;;;;;9.35;4.18;;;16.70;99.90;;;;;;5048463;28;20033;-68
2022/08/21 06:50:50;;;;;;;9.50;3.30;;;16.70;99.90;;;;;;5044907;28;20033;-68
2022/08/21 06:53:19;;;;;;;9.60;4.22;;;16.80;99.90;;;;;;5051026;28;20033;-68
2022/08/21 06:55:46;;;;;;;6.53;3.58;;;16.90;99.90;;;;;;5033674;28;20139;-68
2022/08/21 06:58:13;;;;;;;13.15;3.95;;;16.90;99.90;;;;;;5036314;28;20025;-69
2022/08/21 07:00:40;;;;;;;8.50;3.88;;;17.00;99.90;;;;;;5034850;28;20393;-69
2022/08/21 07:03:06;;;;;;;9.55;3.65;;;17.00;99.90;;;;;;5036511;28;20462;-71
2022/08/21 07:05:32;;;;;;;10.93;3.50;;;17.10;99.90;;;;;;5035638;28;20026;-72
2022/08/21 07:07:58;;;;;;;12.75;4.05;;;17.20;99.90;;;;;;5036241;28;20033;-73
2022/08/21 07:10:25;;;;;;;10.13;3.40;;;17.30;99.90;;;;;;5053713;28;20075;-70
2022/08/21 07:12:52;;;;;;;7.80;2.80;;;17.30;99.90;;;;;;5063053;28;20024;-71
2022/08/21 07:15:18;;;;;;;8.73;3.78;;;17.40;99.90;;;;;;5057878;28;20150;-69
2022/08/21 07:17:43;;;;;;;10.00;3.15;;;17.50;99.90;;;;;;5060240;28;20475;-73
2022/08/21 07:20:09;;;;;;;9.52;3.47;;;17.60;99.90;;;;;;5043371;28;20108;-69
2022/08/21 07:22:37;;;;;;;9.75;3.20;;;17.70;99.90;;;;;;5054763;28;20025;-71
2022/08/21 07:25:05;;;;;;;9.98;3.35;;;17.90;99.90;;;;;;5055926;28;20021;-71
2022/08/21 07:27:31;;;;;;;11.25;3.55;;;18.00;99.90;;;;;;5055170;28;20021;-70
2022/08/21 07:29:57;;;;;;;13.07;3.70;;;18.10;99.90;;;;;;5055345;28;20086;-71
2022/08/21 07:32:23;;;;;;;16.65;3.63;;;18.30;99.90;;;;;;5055061;28;20025;-70
2022/08/21 07:34:49;;;;;;;15.38;3.88;;;18.30;99.90;;;;;;5055273;28;20079;-71
2022/08/21 07:37:14;;;;;;;10.75;3.65;;;18.30;99.90;;;;;;5055652;28;20074;-72
2022/08/21 07:39:40;;;;;;;10.05;4.07;;;18.40;99.90;;;;;;5055749;28;20029;-69
2022/08/21 07:42:06;;;;;;;10.27;3.72;;;18.50;99.90;;;;;;5054931;28;20036;-70
2022/08/21 07:44:34;;;;;;;14.77;3.95;;;18.50;99.90;;;;;;5036900;28;20547;-69
2022/08/21 07:47:00;;;;;;;14.88;3.83;;;18.60;99.90;;;;;;5036243;28;20021;-69
2022/08/21 07:49:27;;;;;;;10.15;3.75;;;18.70;99.90;;;;;;5053473;28;20021;-70
2022/08/21 07:51:52;;;;;;;19.00;4.43;;;18.80;99.90;;;;;;5050638;28;20112;-70
2022/08/21 07:54:18;;;;;;;14.85;4.65;;;18.90;99.90;;;;;;5034510;28;20438;-70
2022/08/21 07:56:44;;;;;;;11.63;4.05;;;19.00;99.90;;;;;;5050923;28;20104;-71
2022/08/21 07:59:10;;;;;;;17.25;4.13;;;19.20;99.90;;;;;;5053274;28;20066;-70
2022/08/21 08:01:35;;;;;;;10.95;4.05;;;19.20;99.90;;;;;;5063616;28;20021;-70
2022/08/21 08:04:01;;;;;;;14.45;4.10;;;19.30;99.90;;;;;;5067185;28;20916;-69
2022/08/21 08:06:27;;;;;;;13.70;3.78;;;19.40;99.90;;;;;;5053805;28;20032;-69
2022/08/21 08:08:53;;;;;;;12.43;4.20;;;19.40;99.90;;;;;;5055264;28;20083;-70
2022/08/21 08:11:18;;;;;;;13.32;4.07;;;19.50;99.90;;;;;;5036281;28;20378;-71
2022/08/21 08:13:48;;;;;;;14.38;3.47;;;19.60;99.90;;;;;;5054417;28;20022;-70
2022/08/21 08:16:14;;;;;;;14.77;3.38;;;19.70;99.90;;;;;;5053757;28;20110;-70
2022/08/21 08:18:41;;;;;;;5.95;3.10;;;19.80;99.90;;;;;;5054044;28;20023;-69
2022/08/21 08:21:08;;;;;;;14.93;3.63;;;20.00;99.90;;;;;;5053800;28;20029;-71
2022/08/21 08:23:34;;;;;;;10.77;3.03;;;20.10;99.90;;;;;;5054571;28;20052;-70
2022/08/21 08:26:02;;;;;;;16.17;2.97;;;19.90;99.90;;;;;;5055341;28;20458;-77
2022/08/21 08:28:29;;;;;;;10.75;3.08;;;19.90;99.90;;;;;;5054034;28;20021;-70
2022/08/21 08:30:55;;;;;;;10.80;3.13;;;19.80;99.90;;;;;;5054172;28;20044;-71
2022/08/21 08:33:21;;;;;;;8.18;3.25;;;19.80;99.90;;;;;;5054033;28;20025;-70
2022/08/21 08:35:49;;;;;;;8.45;2.65;;;19.90;99.90;;;;;;5052834;28;20096;-71
2022/08/21 08:38:18;;;;;;;9.70;2.97;;;20.00;99.90;;;;;;5052781;28;20116;-71
2022/08/21 08:41:14;;;;;;;7.50;2.67;;;20.10;99.90;;;;;;5054453;28;20036;-71
2022/08/21 08:43:47;;;;;;;12.73;2.95;;;20.20;99.90;;;;;;5036611;28;20154;-72
2022/08/21 08:46:16;;;;;;;16.80;3.53;;;20.40;99.90;;;;;;5054554;28;20095;-71
2022/08/21 08:48:45;;;;;;;10.13;3.08;;;20.50;99.90;;;;;;5051237;28;20037;-70
2022/08/21 08:51:25;;;;;;;10.75;2.58;;;20.70;99.90;;;;;;5044018;28;20025;-71
2022/08/21 08:54:04;;;;;;;9.10;2.78;;;20.80;99.90;;;;;;5054269;28;20111;-71
2022/08/21 08:56:33;;;;;;;14.52;3.30;;;21.10;99.90;;;;;;5054447;28;20446;-70
2022/08/21 08:59:13;;;;;;;10.90;2.92;;;21.10;99.90;;;;;;5051904;28;20021;-71
2022/08/21 09:01:39;;;;;;;11.20;2.70;;;21.20;99.90;;;;;;5063760;28;20025;-71
2022/08/21 09:04:05;;;;;;;13.43;2.70;;;21.40;99.90;;;;;;5061153;28;20123;-72
2022/08/21 09:06:59;;;;;;;12.40;3.20;;;21.50;99.90;;;;;;5055490;28;20120;-70
2022/08/21 09:09:44;;;;;;;11.15;2.85;;;21.60;99.90;;;;;;5069969;28;20085;-71
2022/08/21 09:12:17;;;;;;;8.32;2.72;;;21.60;99.90;;;;;;5038763;28;20044;-72
2022/08/21 09:15:06;;;;;;;7.57;2.53;;;21.80;99.90;;;;;;5053498;28;20029;-71
2022/08/21 09:17:56;;;;;;;6.63;2.40;;;21.90;99.90;;;;;;5003403;28;20041;-71
2022/08/21 09:20:50;;;;;;;10.10;2.67;;;22.00;99.90;;;;;;5047477;28;20505;-71
2022/08/21 09:23:32;;;;;;;7.32;2.00;;;22.20;99.90;;;;;;5053711;28;20089;-72
2022/08/21 09:26:11;;;;;;;11.25;2.22;;;22.30;99.90;;;;;;5053809;28;20444;-72
2022/08/21 09:28:37;;;;;;;10.95;2.97;;;22.40;99.90;;;;;;5052918;28;20028;-72
2022/08/21 09:31:21;;;;;;;7.65;2.55;;;22.40;99.90;;;;;;5053241;28;20041;-71
2022/08/21 09:33:46;;;;;;;7.32;2.08;;;22.30;99.90;;;;;;5052865;28;20025;-71
2022/08/21 09:36:22;;;;;;;8.13;1.80;;;22.50;99.90;;;;;;5053359;28;20131;-72
2022/08/21 09:38:54;;;;;;;7.80;2.78;;;22.60;99.90;;;;;;5053262;28;20025;-71
2022/08/21 09:41:30;;;;;;;9.02;2.10;;;22.60;99.90;;;;;;5053222;28;20021;-72
2022/08/21 09:43:57;;;;;;;5.72;1.83;;;22.70;99.90;;;;;;5034809;28;20463;-72
2022/08/21 09:46:27;;;;;;;8.85;2.08;;;22.80;99.90;;;;;;5035300;28;20120;-72
2022/08/21 09:48:56;;;;;;;9.43;2.10;;;22.90;99.90;;;;;;5052648;28;20067;-72
2022/08/21 09:51:28;;;;;;;8.00;2.15;;;23.00;99.90;;;;;;5052817;28;20392;-72
2022/08/21 09:54:00;;;;;;;6.25;2.13;;;23.10;99.90;;;;;;5052110;28;20432;-72
2022/08/21 09:59:34;;;;;;;9.30;1.85;;;22.90;99.90;;;;;;5033049;28;20072;-71
2022/08/21 10:02:03;;;;;;;6.07;2.00;;;23.20;99.90;;;;;;5031455;28;20052;-72
2022/08/21 10:04:33;;;;;;;8.10;1.83;;;23.30;99.90;;;;;;5051185;28;20060;-71
2022/08/21 10:07:14;;;;;;;4.28;1.77;;;23.40;99.90;;;;;;5052061;28;20385;-71
2022/08/21 10:09:41;;;;;;;6.07;1.80;;;23.50;99.90;;;;;;5033821;28;20029;-71
2022/08/21 10:12:25;;;;;;;3.88;1.85;;;23.60;99.90;;;;;;5051466;28;20504;-71
2022/08/21 10:15:15;;;;;;;7.80;2.00;;;23.60;99.90;;;;;;5052092;28;20102;-72
2022/08/21 10:17:54;;;;;;;10.93;1.52;;;23.80;99.90;;;;;;5051896;28;20040;-71
2022/08/21 10:20:30;;;;;;;8.35;2.25;;;23.90;99.90;;;;;;5061417;28;20092;-72
2022/08/21 10:23:18;;;;;;;7.47;2.00;;;24.00;99.90;;;;;;5061070;28;20028;-72
2022/08/21 10:25:51;;;;;;;5.75;2.17;;;24.10;99.90;;;;;;5058553;28;20091;-72
2022/08/21 10:28:39;;;;;;;3.08;1.52;;;24.20;99.90;;;;;;5066652;28;20025;-70
2022/08/21 10:31:16;;;;;;;4.15;1.20;;;24.40;99.90;;;;;;5060468;28;20043;-71
2022/08/21 10:34:25;;;;;;;3.60;1.45;;;24.60;99.90;;;;;;5055627;28;20044;-72
2022/08/21 10:37:12;;;;;;;6.95;1.90;;;24.30;99.90;;;;;;5059731;28;20024;-72
2022/08/21 10:39:50;;;;;;;5.05;1.58;;;24.50;99.90;;;;;;5062472;28;20017;-71
2022/08/21 10:42:55;;;;;;;7.32;1.50;;;24.60;99.90;;;;;;5057592;28;20033;-71
2022/08/21 10:45:44;;;;;;;5.88;1.63;;;24.50;99.90;;;;;;5056665;28;20065;-71
2022/08/21 10:48:21;;;;;;;5.68;1.50;;;24.50;99.90;;;;;;5052251;28;20508;-71
2022/08/21 10:51:09;;;;;;;5.40;1.70;;;24.40;99.90;;;;;;5051928;28;20127;-72
2022/08/21 10:53:57;;;;;;;7.47;1.70;;;24.50;99.90;;;;;;5052257;28;20031;-72
2022/08/21 10:56:30;;;;;;;10.07;1.85;;;24.70;99.90;;;;;;5051951;28;20029;-71
2022/08/21 10:58:55;;;;;;;;;;;24.50;99.90;;;;;;5052378;28;20021;-72
2022/08/21 11:01:34;;;;;;;5.07;1.58;;;24.50;99.90;;;;;;5050856;28;19966;-71
2022/08/21 11:04:11;;;;;;;5.60;1.83;;;24.40;99.90;;;;;;5051918;28;20028;-72
2022/08/21 11:06:44;;;;;;;3.22;1.40;;;24.60;99.90;;;;;;5054454;28;20468;-72
2022/08/21 11:09:19;;;;;;;;;;;24.80;99.90;;;;;;5045069;28;20025;-72
2022/08/21 11:11:57;;;;;;;9.15;1.70;;;25.00;99.90;;;;;;5055890;28;19963;-68
2022/08/21 11:14:35;;;;;;;5.90;2.13;;;25.30;99.90;;;;;;5056176;28;20078;-71
2022/08/21 11:17:13;;;;;;;9.13;1.50;;;25.50;99.90;;;;;;5058082;28;20032;-69
2022/08/21 11:20:04;;;;;;;4.38;1.63;;;25.70;99.90;;;;;;5062459;28;20036;-69
2022/08/21 11:22:40;;;;;;;4.30;1.50;;;25.50;99.90;;;;;;5055640;28;20025;-70
2022/08/21 11:25:15;;;;;;;5.28;1.67;;;25.40;99.90;;;;;;5046630;28;20043;-72
2022/08/21 11:27:47;;;;;;;7.28;1.70;;;25.20;99.90;;;;;;5050321;28;20025;-72
2022/08/21 11:30:13;;;;;;;6.10;1.60;;;25.10;99.90;;;;;;5050329;28;20086;-71
2022/08/21 11:32:48;;;;;;;4.07;1.33;;;25.00;99.90;;;;;;5051121;28;20029;-70
2022/08/21 11:35:46;;;;;;;3.55;1.60;;;25.10;99.90;;;;;;5050502;28;20021;-70
2022/08/21 11:38:34;;;;;;;7.20;1.60;;;25.10;99.90;;;;;;5039052;28;20056;-69
2022/08/21 11:41:04;;;;;;;8.00;1.33;;;25.00;99.90;;;;;;5050273;28;20115;-71
2022/08/21 11:43:42;;;;;;;6.57;2.20;;;25.10;99.90;;;;;;5053826;28;20542;-71
2022/08/21 11:46:19;;;;;;;7.15;1.75;;;25.10;99.90;;;;;;5054922;28;20025;-70
2022/08/21 11:49:30;;;;;;;6.13;1.70;;;24.90;99.90;;;;;;5053749;28;20052;-70
2022/08/21 11:52:15;;;;;;;6.07;2.35;;;24.90;99.90;;;;;;4961232;28;20046;-71
2022/08/21 11:54:46;;;;;;;8.23;2.08;;;25.10;99.90;;;;;;4963311;28;20019;-71
2022/08/21 11:57:22;;;;;;;8.57;2.20;;;25.50;99.90;;;;;;5005354;28;20127;-70
2022/08/21 11:59:54;;;;;;;5.72;2.13;;;25.50;99.90;;;;;;5062336;28;20017;-70
2022/08/21 12:02:24;;;;;;;6.40;2.08;;;25.70;99.90;;;;;;5064357;28;20413;-70
2022/08/21 12:04:56;;;;;;;3.45;1.60;;;25.70;99.90;;;;;;5065087;28;20032;-70
2022/08/21 12:07:41;;;;;;;4.65;1.58;;;25.80;99.90;;;;;;5064852;28;20025;-70
2022/08/21 12:10:35;;;;;;;5.88;1.58;;;25.80;99.90;;;;;;5064093;28;20033;-70
2022/08/21 12:13:22;;;;;;;6.57;1.90;;;26.10;99.90;;;;;;5042703;28;20025;-72
2022/08/21 12:15:47;;;;;;;4.85;1.98;;;26.30;99.90;;;;;;5061755;28;20017;-72
2022/08/21 12:18:30;;;;;;;6.35;1.58;;;26.40;99.90;;;;;;5054655;28;20021;-70
2022/08/21 12:21:16;;;;;;;8.15;1.92;;;26.10;99.80;;;;;;5054138;28;20048;-73
2022/08/21 12:23:48;;;;;;;6.47;1.98;;;26.10;99.90;;;;;;5054089;28;20072;-70
2022/08/21 12:26:24;;;;;;;8.32;2.13;;;25.90;99.90;;;;;;5053925;28;20024;-70
2022/08/21 12:28:50;;;;;;;7.93;1.75;;;25.70;99.90;;;;;;5054078;28;20063;-70
2022/08/21 12:31:26;;;;;;;10.40;2.08;;;25.80;99.90;;;;;;5054003;28;20028;-73
2022/08/21 12:33:59;;;;;;;5.57;2.03;;;25.90;99.80;;;;;;5054404;28;20032;-70
2022/08/21 12:36:49;;;;;;;4.15;1.88;;;26.10;99.90;;;;;;5054318;28;20021;-72
2022/08/21 12:39:22;;;;;;;7.75;2.17;;;26.30;99.90;;;;;;5053990;28;20021;-70
2022/08/21 12:42:04;;;;;;;5.00;1.58;;;26.50;99.60;;;;;;5054284;28;20390;-72
2022/08/21 12:44:58;;;;;;;6.47;1.58;;;26.70;98.90;;;;;;5054410;28;20111;-72
2022/08/21 12:48:04;;;;;;;6.80;1.80;;;26.80;98.40;;;;;;5061398;28;20028;-73
2022/08/21 12:50:44;;;;;;;6.78;1.90;;;26.50;97.60;;;;;;5026081;28;20032;-71
2022/08/21 12:53:26;;;;;;;4.45;1.80;;;26.50;99.20;;;;;;5059260;28;20028;-71
2022/08/21 12:55:59;;;;;;;7.03;1.88;;;26.50;98.40;;;;;;5061679;28;20040;-74
2022/08/21 12:58:25;;;;;;;5.40;2.00;;;26.50;98.30;;;;;;5054209;28;20017;-74